sensor_id;sensor_type;location;lat;lon;timestamp;temperature;humidity
33815;DHT22;20121;51.910;8.406;2022-11-15T00:01:35;9.10;99.90
33815;DHT22;20121;51.910;8.406;2022-11-15T00:04:03;9.10;99.90
33815;DHT22;20121;51.910;8.406;2022-11-15T00:06:29;9.20;99.90
33815;DHT22;20121;51.910;8.406;2022-11-15T00:08:54;9.20;99.90
33815;DHT22;20121;51.910;8.406;2022-11-15T00:11:20;9.20;99.90
33815;DHT22;20121;51.910;8.406;2022-11-15T00:13:46;9.30;99.90
33815;DHT22;20121;51.910;8.406;2022-11-15T00:16:11;9.30;99.90
33815;DHT22;20121;51.910;8.406;2022-11-15T00:18:38;9.30;99.90
33815;DHT22;20121;51.910;8.406;2022-11-15T00:21:12;9.30;99.90
33815;DHT22;20121;51.910;8.406;2022-11-15T00:23:38;9.30;99.90
33815;DHT22;20121;51.910;8.406;2022-11-15T00:26:03;9.40;99.90
33815;DHT22;20121;51.910;8.406;2022-11-15T00:28:29;9.40;99.90
33815;DHT22;20121;51.910;8.406;2022-11-15T00:31:01;9.40;99.90
33815;DHT22;20121;51.910;8.406;2022-11-15T00:33:27;9.40;99.90
33815;DHT22;20121;51.910;8.406;2022-11-15T00:35:52;9.10;99.90
33815;DHT22;20121;51.910;8.406;2022-11-15T00:38:18;9.50;99.90
33815;DHT22;20121;51.910;8.406;2022-11-15T00:40:43;9.50;99.90
33815;DHT22;20121;51.910;8.406;2022-11-15T00:43:09;9.60;99.90
33815;DHT22;20121;51.910;8.406;2022-11-15T00:45:35;9.60;99.90
33815;DHT22;20121;51.910;8.406;2022-11-15T00:48:00;9.60;99.90
33815;DHT22;20121;51.910;8.406;2022-11-15T00:50:26;9.70;99.90
33815;DHT22;20121;51.910;8.406;2022-11-15T00:52:51;9.70;99.90
33815;DHT22;20121;51.910;8.406;2022-11-15T00:55:18;9.70;99.90
33815;DHT22;20121;51.910;8.406;2022-11-15T00:57:44;9.70;99.90
33815;DHT22;20121;51.910;8.406;2022-11-15T01:00:10;9.80;99.90
33815;DHT22;20121;51.910;8.406;2022-11-15T01:02:36;9.80;99.90
33815;DHT22;20121;51.910;8.406;2022-11-15T01:05:01;9.90;99.90
33815;DHT22;20121;51.910;8.406;2022-11-15T01:07:27;9.90;99.90
33815;DHT22;20121;51.910;8.406;2022-11-15T01:09:52;9.90;99.90
33815;DHT22;20121;51.910;8.406;2022-11-15T01:12:19;10.00;99.90
33815;DHT22;20121;51.910;8.406;2022-11-15T01:14:44;10.00;99.90
33815;DHT22;20121;51.910;8.406;2022-11-15T01:17:10;10.20;99.90
33815;DHT22;20121;51.910;8.406;2022-11-15T01:19:36;10.00;99.90
33815;DHT22;20121;51.910;8.406;2022-11-15T01:22:01;10.10;99.90
33815;DHT22;20121;51.910;8.406;2022-11-15T01:24:27;10.10;99.90
33815;DHT22;20121;51.910;8.406;2022-11-15T01:26:53;10.20;99.90
33815;DHT22;20121;51.910;8.406;2022-11-15T01:29:18;10.20;99.90
33815;DHT22;20121;51.910;8.406;2022-11-15T01:31:44;10.20;99.90
33815;DHT22;20121;51.910;8.406;2022-11-15T01:34:10;10.20;99.90
33815;DHT22;20121;51.910;8.406;2022-11-15T01:36:35;10.30;99.90
33815;DHT22;20121;51.910;8.406;2022-11-15T01:39:01;10.30;99.90
33815;DHT22;20121;51.910;8.406;2022-11-15T01:41:29;10.30;99.90
33815;DHT22;20121;51.910;8.406;2022-11-15T01:44:25;10.30;99.90
33815;DHT22;20121;51.910;8.406;2022-11-15T01:46:46;10.00;99.90
33815;DHT22;20121;51.910;8.406;2022-11-15T01:49:18;10.20;99.90
33815;DHT22;20121;51.910;8.406;2022-11-15T01:51:44;10.20;99.90
33815;DHT22;20121;51.910;8.406;2022-11-15T01:54:14;10.20;99.90
33815;DHT22;20121;51.910;8.406;2022-11-15T01:56:48;10.10;99.90
33815;DHT22;20121;51.910;8.406;2022-11-15T01:59:15;10.20;99.90
33815;DHT22;20121;51.910;8.406;2022-11-15T02:01:41;10.20;99.90
33815;DHT22;20121;51.910;8.406;2022-11-15T02:04:13;10.20;99.90
33815;DHT22;20121;51.910;8.406;2022-11-15T02:06:42;10.20;99.90
33815;DHT22;20121;51.910;8.406;2022-11-15T02:09:08;10.20;99.90
33815;DHT22;20121;51.910;8.406;2022-11-15T02:11:34;10.20;99.90
33815;DHT22;20121;51.910;8.406;2022-11-15T02:14:01;10.30;99.90
33815;DHT22;20121;51.910;8.406;2022-11-15T02:25:38;10.30;99.90
33815;DHT22;20121;51.910;8.406;2022-11-15T02:31:00;10.30;99.90
33815;DHT22;20121;51.910;8.406;2022-11-15T02:36:22;10.40;99.90
33815;DHT22;20121;51.910;8.406;2022-11-15T02:41:50;10.50;99.90
33815;DHT22;20121;51.910;8.406;2022-11-15T02:44:39;10.50;99.90
33815;DHT22;20121;51.910;8.406;2022-11-15T02:47:09;10.50;99.90
33815;DHT22;20121;51.910;8.406;2022-11-15T02:49:48;10.60;99.90
33815;DHT22;20121;51.910;8.406;2022-11-15T02:52:20;10.40;99.90
33815;DHT22;20121;51.910;8.406;2022-11-15T02:54:59;10.70;99.90
33815;DHT22;20121;51.910;8.406;2022-11-15T03:00:13;10.60;99.90
33815;DHT22;20121;51.910;8.406;2022-11-15T03:05:20;10.70;99.90
33815;DHT22;20121;51.910;8.406;2022-11-15T03:12:57;10.70;99.90
33815;DHT22;20121;51.910;8.406;2022-11-15T03:15:35;10.70;99.90
33815;DHT22;20121;51.910;8.406;2022-11-15T03:18:16;10.70;99.90
33815;DHT22;20121;51.910;8.406;2022-11-15T03:20:44;10.70;99.90
33815;DHT22;20121;51.910;8.406;2022-11-15T03:23:12;10.70;99.90
33815;DHT22;20121;51.910;8.406;2022-11-15T03:25:45;10.70;99.90
33815;DHT22;20121;51.910;8.406;2022-11-15T03:28:14;10.70;99.90
33815;DHT22;20121;51.910;8.406;2022-11-15T03:30:41;10.80;99.90
33815;DHT22;20121;51.910;8.406;2022-11-15T03:33:08;10.80;99.90
33815;DHT22;20121;51.910;8.406;2022-11-15T03:35:38;10.70;99.90
33815;DHT22;20121;51.910;8.406;2022-11-15T03:38:25;10.80;99.90
33815;DHT22;20121;51.910;8.406;2022-11-15T03:40:59;10.80;99.90
33815;DHT22;20121;51.910;8.406;2022-11-15T03:43:41;10.80;99.90
33815;DHT22;20121;51.910;8.406;2022-11-15T03:46:13;10.80;99.90
33815;DHT22;20121;51.910;8.406;2022-11-15T03:48:46;10.80;99.90
33815;DHT22;20121;51.910;8.406;2022-11-15T03:51:12;10.80;99.90
33815;DHT22;20121;51.910;8.406;2022-11-15T03:53:38;10.80;99.90
33815;DHT22;20121;51.910;8.406;2022-11-15T03:56:03;10.80;99.90
33815;DHT22;20121;51.910;8.406;2022-11-15T03:58:29;10.80;99.90
33815;DHT22;20121;51.910;8.406;2022-11-15T04:00:55;10.60;99.90
33815;DHT22;20121;51.910;8.406;2022-11-15T04:03:20;10.80;99.90
33815;DHT22;20121;51.910;8.406;2022-11-15T04:05:46;10.80;99.90
33815;DHT22;20121;51.910;8.406;2022-11-15T04:08:11;10.80;99.90
33815;DHT22;20121;51.910;8.406;2022-11-15T04:10:37;10.80;99.90
33815;DHT22;20121;51.910;8.406;2022-11-15T04:13:02;10.80;99.90
33815;DHT22;20121;51.910;8.406;2022-11-15T04:15:28;10.80;99.90
33815;DHT22;20121;51.910;8.406;2022-11-15T04:17:56;10.80;99.90
33815;DHT22;20121;51.910;8.406;2022-11-15T04:20:30;10.80;99.90
33815;DHT22;20121;51.910;8.406;2022-11-15T04:23:22;10.80;99.90
33815;DHT22;20121;51.910;8.406;2022-11-15T04:26:19;11.10;99.90
33815;DHT22;20121;51.910;8.406;2022-11-15T04:28:46;10.80;99.90
33815;DHT22;20121;51.910;8.406;2022-11-15T04:31:30;10.80;99.90
33815;DHT22;20121;51.910;8.406;2022-11-15T04:33:55;10.80;99.90
33815;DHT22;20121;51.910;8.406;2022-11-15T04:36:21;10.60;99.90
33815;DHT22;20121;51.910;8.406;2022-11-15T04:39:05;10.80;99.90
33815;DHT22;20121;51.910;8.406;2022-11-15T04:41:31;10.80;99.90
33815;DHT22;20121;51.910;8.406;2022-11-15T04:43:57;10.80;99.90
33815;DHT22;20121;51.910;8.406;2022-11-15T04:46:23;11.10;99.90
33815;DHT22;20121;51.910;8.406;2022-11-15T04:48:49;10.80;99.90
33815;DHT22;20121;51.910;8.406;2022-11-15T04:51:15;10.80;99.90
33815;DHT22;20121;51.910;8.406;2022-11-15T04:53:41;10.80;99.90
33815;DHT22;20121;51.910;8.406;2022-11-15T04:56:07;10.80;99.90
33815;DHT22;20121;51.910;8.406;2022-11-15T04:58:33;10.80;99.90
33815;DHT22;20121;51.910;8.406;2022-11-15T05:01:13;10.80;99.90
33815;DHT22;20121;51.910;8.406;2022-11-15T05:06:26;10.90;99.90
33815;DHT22;20121;51.910;8.406;2022-11-15T05:08:52;10.80;99.90
33815;DHT22;20121;51.910;8.406;2022-11-15T05:11:18;10.80;99.90
33815;DHT22;20121;51.910;8.406;2022-11-15T05:13:44;10.80;99.90
33815;DHT22;20121;51.910;8.406;2022-11-15T05:16:09;10.80;99.90
33815;DHT22;20121;51.910;8.406;2022-11-15T05:18:35;10.80;99.90
33815;DHT22;20121;51.910;8.406;2022-11-15T05:21:05;10.90;99.90
33815;DHT22;20121;51.910;8.406;2022-11-15T05:23:31;10.90;99.90
33815;DHT22;20121;51.910;8.406;2022-11-15T05:26:01;10.90;99.90
33815;DHT22;20121;51.910;8.406;2022-11-15T05:28:27;10.90;99.90
33815;DHT22;20121;51.910;8.406;2022-11-15T05:30:53;10.90;99.90
33815;DHT22;20121;51.910;8.406;2022-11-15T05:33:19;10.90;99.90
33815;DHT22;20121;51.910;8.406;2022-11-15T05:35:52;10.90;99.90
33815;DHT22;20121;51.910;8.406;2022-11-15T05:38:19;10.90;99.90
33815;DHT22;20121;51.910;8.406;2022-11-15T05:40:45;10.90;99.90
33815;DHT22;20121;51.910;8.406;2022-11-15T05:45:37;11.00;99.90
33815;DHT22;20121;51.910;8.406;2022-11-15T05:48:06;10.90;99.90
33815;DHT22;20121;51.910;8.406;2022-11-15T05:50:34;11.00;99.90
33815;DHT22;20121;51.910;8.406;2022-11-15T05:53:02;10.90;99.90
33815;DHT22;20121;51.910;8.406;2022-11-15T05:55:28;11.10;99.90
33815;DHT22;20121;51.910;8.406;2022-11-15T05:57:53;10.90;99.90
33815;DHT22;20121;51.910;8.406;2022-11-15T06:00:19;10.90;99.90
33815;DHT22;20121;51.910;8.406;2022-11-15T06:02:45;11.00;99.90
33815;DHT22;20121;51.910;8.406;2022-11-15T06:05:10;11.00;99.90
33815;DHT22;20121;51.910;8.406;2022-11-15T06:07:36;11.00;99.90
33815;DHT22;20121;51.910;8.406;2022-11-15T06:10:02;11.00;99.90
33815;DHT22;20121;51.910;8.406;2022-11-15T06:12:27;11.00;99.90
33815;DHT22;20121;51.910;8.406;2022-11-15T06:14:53;11.00;99.90
33815;DHT22;20121;51.910;8.406;2022-11-15T06:17:18;11.00;99.90
33815;DHT22;20121;51.910;8.406;2022-11-15T06:19:44;11.00;99.90
33815;DHT22;20121;51.910;8.406;2022-11-15T06:22:09;11.10;99.90
33815;DHT22;20121;51.910;8.406;2022-11-15T06:24:35;11.00;99.90
33815;DHT22;20121;51.910;8.406;2022-11-15T06:27:01;11.10;99.90
33815;DHT22;20121;51.910;8.406;2022-11-15T06:31:52;11.10;99.90
33815;DHT22;20121;51.910;8.406;2022-11-15T06:34:18;11.10;99.90
33815;DHT22;20121;51.910;8.406;2022-11-15T06:36:44;11.10;99.90
33815;DHT22;20121;51.910;8.406;2022-11-15T06:39:09;11.20;99.90
33815;DHT22;20121;51.910;8.406;2022-11-15T06:41:35;11.20;99.90
33815;DHT22;20121;51.910;8.406;2022-11-15T06:44:02;11.20;99.90
33815;DHT22;20121;51.910;8.406;2022-11-15T06:46:28;10.90;99.90
33815;DHT22;20121;51.910;8.406;2022-11-15T06:48:53;11.20;99.90
33815;DHT22;20121;51.910;8.406;2022-11-15T06:51:19;11.20;99.90
33815;DHT22;20121;51.910;8.406;2022-11-15T06:53:45;11.30;99.90
33815;DHT22;20121;51.910;8.406;2022-11-15T06:56:11;11.30;99.90
33815;DHT22;20121;51.910;8.406;2022-11-15T06:58:37;11.30;99.90
33815;DHT22;20121;51.910;8.406;2022-11-15T07:01:05;11.40;99.90
33815;DHT22;20121;51.910;8.406;2022-11-15T07:03:34;11.40;99.90
33815;DHT22;20121;51.910;8.406;2022-11-15T07:06:01;11.40;99.90
33815;DHT22;20121;51.910;8.406;2022-11-15T07:08:28;11.40;99.90
33815;DHT22;20121;51.910;8.406;2022-11-15T07:10:54;11.40;99.90
33815;DHT22;20121;51.910;8.406;2022-11-15T07:13:26;11.50;99.90
33815;DHT22;20121;51.910;8.406;2022-11-15T07:15:52;11.50;99.90
33815;DHT22;20121;51.910;8.406;2022-11-15T07:18:17;11.50;99.90
33815;DHT22;20121;51.910;8.406;2022-11-15T07:20:43;11.50;99.90
33815;DHT22;20121;51.910;8.406;2022-11-15T07:23:08;11.50;99.90
33815;DHT22;20121;51.910;8.406;2022-11-15T07:25:34;11.50;99.90
33815;DHT22;20121;51.910;8.406;2022-11-15T07:28:00;11.60;99.90
33815;DHT22;20121;51.910;8.406;2022-11-15T07:30:26;11.60;99.90
33815;DHT22;20121;51.910;8.406;2022-11-15T07:32:59;11.60;99.90
33815;DHT22;20121;51.910;8.406;2022-11-15T07:35:27;11.70;99.90
33815;DHT22;20121;51.910;8.406;2022-11-15T07:38:00;11.70;99.90
33815;DHT22;20121;51.910;8.406;2022-11-15T07:40:28;11.70;99.90
33815;DHT22;20121;51.910;8.406;2022-11-15T07:43:05;11.70;99.90
33815;DHT22;20121;51.910;8.406;2022-11-15T07:45:31;11.70;99.90
33815;DHT22;20121;51.910;8.406;2022-11-15T07:47:59;11.80;99.90
33815;DHT22;20121;51.910;8.406;2022-11-15T07:50:25;11.80;99.90
33815;DHT22;20121;51.910;8.406;2022-11-15T07:52:58;11.80;99.90
33815;DHT22;20121;51.910;8.406;2022-11-15T07:55:25;11.80;99.90
33815;DHT22;20121;51.910;8.406;2022-11-15T07:57:52;11.90;99.90
33815;DHT22;20121;51.910;8.406;2022-11-15T08:00:18;11.90;99.90
33815;DHT22;20121;51.910;8.406;2022-11-15T08:02:44;11.90;99.90
33815;DHT22;20121;51.910;8.406;2022-11-15T08:05:10;12.00;99.90
33815;DHT22;20121;51.910;8.406;2022-11-15T08:07:36;12.00;99.90
33815;DHT22;20121;51.910;8.406;2022-11-15T08:10:03;12.10;99.90
33815;DHT22;20121;51.910;8.406;2022-11-15T08:12:31;12.30;99.90
33815;DHT22;20121;51.910;8.406;2022-11-15T08:14:57;12.50;99.90
33815;DHT22;20121;51.910;8.406;2022-11-15T08:17:24;12.70;99.90
33815;DHT22;20121;51.910;8.406;2022-11-15T08:19:50;12.90;99.90
33815;DHT22;20121;51.910;8.406;2022-11-15T08:22:15;13.00;99.90
33815;DHT22;20121;51.910;8.406;2022-11-15T08:24:41;13.10;99.90
33815;DHT22;20121;51.910;8.406;2022-11-15T08:27:07;13.30;99.90
33815;DHT22;20121;51.910;8.406;2022-11-15T08:29:44;13.30;99.90
33815;DHT22;20121;51.910;8.406;2022-11-15T08:32:10;13.20;99.90
33815;DHT22;20121;51.910;8.406;2022-11-15T08:34:37;13.40;99.90
